Terminal Aerodrome Forecast
Issued by NWS

Home | Current Version | Previous Version | Graphics & Text | Print | Product List | Glossary On
Versions: 1 2 3 4 5 6 7 8 9 10 11 12 13 14 15 16 17
683
FTUS43 KICT 111643 AAB
TAFHUT
TAF AMD
KHUT 111643Z 1117/1212 04006KT P6SM SCT010
     FM111900 16005KT P6SM SCT250
     FM120700 22006KT P6SM SCT250=

USA.gov is the U.S. government's official web portal to all federal, state and local government web resources and services.